createdAt,value
2023-02-19T00:00:16.247Z,56.64
2023-02-19T00:01:20.371Z,56.78
2023-02-19T00:02:23.067Z,56.73
2023-02-19T00:03:25.220Z,56.59
2023-02-19T00:04:28.064Z,56.07
2023-02-19T00:05:29.788Z,56.48
2023-02-19T00:06:34.118Z,56.11
2023-02-19T00:07:35.838Z,56.54
2023-02-19T00:08:42.117Z,56.56
2023-02-19T00:09:43.999Z,56.15
2023-02-19T00:10:48.130Z,56.66
2023-02-19T00:11:49.903Z,56.90
2023-02-19T00:12:52.891Z,56.71
2023-02-19T00:13:55.824Z,56.76
2023-02-19T00:14:59.648Z,56.86
2023-02-19T00:16:06.020Z,56.80
2023-02-19T00:17:08.802Z,56.55
2023-02-19T00:18:10.543Z,56.35
2023-02-19T00:19:15.776Z,56.73
2023-02-19T00:20:17.810Z,56.67
2023-02-19T00:21:20.522Z,56.47
2023-02-19T00:22:22.214Z,56.44
2023-02-19T00:23:24.936Z,56.80
2023-02-19T00:24:27.599Z,56.66
2023-02-19T00:25:29.348Z,56.90
2023-02-19T00:26:33.810Z,56.71
2023-02-19T00:27:35.490Z,56.44
2023-02-19T00:28:38.305Z,56.62
2023-02-19T00:29:40.102Z,57.51
2023-02-19T00:30:42.835Z,57.27
2023-02-19T00:31:46.128Z,56.52
2023-02-19T00:32:50.762Z,56.68
2023-02-19T00:33:55.122Z,57.07
2023-02-19T00:34:56.783Z,56.59
2023-02-19T00:36:01.310Z,56.66
2023-02-19T00:37:04.026Z,56.95
2023-02-19T00:38:05.750Z,57.09
2023-02-19T00:39:09.575Z,57.39
2023-02-19T00:40:11.425Z,57.10
2023-02-19T00:41:20.694Z,56.99
2023-02-19T00:42:23.710Z,57.44
2023-02-19T00:43:26.395Z,56.97
2023-02-19T00:44:28.144Z,57.44
2023-02-19T00:45:30.855Z,57.35
2023-02-19T00:46:35.529Z,57.29
2023-02-19T00:47:38.247Z,57.46
2023-02-19T00:48:40.072Z,58.13
2023-02-19T00:49:42.899Z,58.21
2023-02-19T00:50:44.733Z,57.62
2023-02-19T00:51:47.559Z,57.62
2023-02-19T00:52:49.277Z,57.88
2023-02-19T00:53:52.384Z,57.86
2023-02-19T00:54:54.198Z,57.96
2023-02-19T00:55:56.901Z,57.64
2023-02-19T00:56:59.569Z,57.35
2023-02-19T00:58:02.686Z,57.23
2023-02-19T00:59:05.524Z,57.44
2023-02-19T01:00:08.367Z,57.49
2023-02-19T01:01:12.500Z,57.34
2023-02-19T01:02:14.283Z,57.22
2023-02-19T01:03:16.976Z,57.73
2023-02-19T01:04:18.698Z,57.60
2023-02-19T01:05:21.384Z,57.65
2023-02-19T01:06:23.344Z,57.41
2023-02-19T01:07:26.120Z,57.47
2023-02-19T01:08:28.090Z,57.93
2023-02-19T01:09:30.907Z,57.84
2023-02-19T01:10:32.645Z,57.69
2023-02-19T01:11:35.382Z,57.95
2023-02-19T01:12:37.086Z,57.70
2023-02-19T01:13:41.813Z,57.93
2023-02-19T01:14:43.659Z,57.96
2023-02-19T01:15:46.568Z,58.62
2023-02-19T01:16:48.331Z,58.36
2023-02-19T01:17:51.039Z,58.61
2023-02-19T01:18:52.734Z,58.04
2023-02-19T01:19:55.379Z,57.93
2023-02-19T01:20:57.136Z,57.93
2023-02-19T01:21:59.886Z,57.85
2023-02-19T01:23:01.635Z,58.25
2023-02-19T01:24:04.583Z,58.10
2023-02-19T01:25:06.767Z,58.15
2023-02-19T01:26:10.838Z,57.84
2023-02-19T01:27:12.551Z,58.17
2023-02-19T01:28:15.214Z,57.67
2023-02-19T01:29:19.240Z,58.27
2023-02-19T01:30:21.018Z,58.38
2023-02-19T01:31:25.198Z,58.38
2023-02-19T01:32:27.997Z,58.19
2023-02-19T01:33:29.902Z,58.59
2023-02-19T01:34:34.287Z,58.62
2023-02-19T01:35:39.174Z,58.56
2023-02-19T01:36:41.945Z,58.21
2023-02-19T01:37:43.689Z,58.25
2023-02-19T01:38:47.077Z,58.46
2023-02-19T01:39:48.856Z,58.25
2023-02-19T01:40:56.334Z,58.47
2023-02-19T01:41:59.579Z,59.12
2023-02-19T01:43:01.301Z,58.91
2023-02-19T01:44:07.873Z,59.07
2023-02-19T01:45:21.270Z,58.62
2023-02-19T01:46:26.609Z,58.50
2023-02-19T01:47:28.315Z,58.63
2023-02-19T01:48:32.868Z,58.75
2023-02-19T01:49:37.146Z,58.62
2023-02-19T01:50:43.058Z,58.90
2023-02-19T01:51:47.482Z,58.66
2023-02-19T01:52:50.163Z,58.90
2023-02-19T01:53:54.959Z,58.85
2023-02-19T01:54:57.978Z,58.99
2023-02-19T01:56:00.683Z,58.85
2023-02-19T01:57:06.620Z,58.97
2023-02-19T01:58:10.213Z,58.83
2023-02-19T01:59:13.324Z,58.93
2023-02-19T02:00:16.522Z,58.96
2023-02-19T02:01:20.740Z,58.54
2023-02-19T02:02:23.758Z,58.88
2023-02-19T02:03:26.555Z,59.04
2023-02-19T02:04:30.550Z,59.41
2023-02-19T02:05:46.090Z,59.10
2023-02-19T02:06:50.406Z,58.74
2023-02-19T02:08:10.795Z,58.97
2023-02-19T02:09:31.452Z,59.21
2023-02-19T02:10:35.046Z,59.43
2023-02-19T02:11:36.806Z,59.75
2023-02-19T02:12:39.482Z,59.65
2023-02-19T02:13:41.233Z,59.95
2023-02-19T02:14:46.607Z,59.71
2023-02-19T02:15:52.811Z,60.05
2023-02-19T02:17:03.111Z,60.24
2023-02-19T02:18:10.562Z,60.27
2023-02-19T02:19:31.460Z,60.00
2023-02-19T02:20:40.133Z,59.61
2023-02-19T02:21:59.994Z,60.21
2023-02-19T02:23:09.021Z,60.09
2023-02-19T02:24:26.408Z,60.12
2023-02-19T02:25:56.464Z,60.53
2023-02-19T02:27:22.792Z,60.33
2023-02-19T02:28:44.491Z,60.47
2023-02-19T02:30:25.369Z,60.44
2023-02-19T02:31:30.430Z,60.20
2023-02-19T02:32:35.590Z,60.04
2023-02-19T02:33:42.490Z,60.66
2023-02-19T02:34:48.377Z,60.35
2023-02-19T02:35:54.180Z,60.32
2023-02-19T02:36:56.859Z,60.22
2023-02-19T02:38:02.472Z,60.23
2023-02-19T02:39:07.240Z,60.55
2023-02-19T02:40:12.084Z,60.06
2023-02-19T02:41:14.767Z,60.73
2023-02-19T02:42:29.350Z,60.66
2023-02-19T02:43:31.281Z,60.30
2023-02-19T02:44:35.929Z,60.57
2023-02-19T02:45:40.008Z,60.87
2023-02-19T02:46:45.221Z,60.72
2023-02-19T02:47:49.694Z,60.72
2023-02-19T02:48:55.440Z,60.60
2023-02-19T02:50:05.208Z,60.43
2023-02-19T02:51:13.882Z,60.67
2023-02-19T02:52:37.199Z,60.86
2023-02-19T02:54:01.727Z,60.83
2023-02-19T02:55:08.102Z,61.04
2023-02-19T02:56:11.539Z,61.12
2023-02-19T02:57:15.018Z,60.67
2023-02-19T02:58:18.169Z,60.48
2023-02-19T02:59:22.275Z,60.37
2023-02-19T03:00:25.803Z,60.86
2023-02-19T03:01:49.432Z,60.89
2023-02-19T03:02:51.148Z,60.64
2023-02-19T03:03:58.311Z,61.08
2023-02-19T03:05:22.132Z,60.72
2023-02-19T03:06:27.129Z,60.61
2023-02-19T03:07:36.487Z,60.75
2023-02-19T03:08:41.853Z,60.80
2023-02-19T03:09:44.765Z,60.75
2023-02-19T03:10:52.877Z,61.06
2023-02-19T03:12:14.022Z,60.73
2023-02-19T03:13:37.303Z,60.69
2023-02-19T03:15:02.592Z,60.26
2023-02-19T03:16:27.975Z,60.38
2023-02-19T03:17:52.594Z,60.67
2023-02-19T03:19:13.434Z,60.31
2023-02-19T03:20:17.270Z,60.01
2023-02-19T03:21:21.073Z,60.53
2023-02-19T03:22:26.471Z,60.72
2023-02-19T03:23:44.867Z,60.75
2023-02-19T03:25:09.167Z,61.12
2023-02-19T03:26:11.109Z,61.18
2023-02-19T03:27:15.622Z,61.19
2023-02-19T03:28:18.329Z,61.15
2023-02-19T03:29:26.221Z,61.29
2023-02-19T03:30:31.047Z,61.27
2023-02-19T03:31:33.437Z,61.37
2023-02-19T03:32:41.434Z,61.48
2023-02-19T03:33:43.612Z,61.08
2023-02-19T03:34:49.579Z,61.21
2023-02-19T03:35:56.443Z,61.33
2023-02-19T03:37:02.163Z,61.44
2023-02-19T03:38:07.468Z,61.22
2023-02-19T03:39:12.927Z,61.38
2023-02-19T03:40:15.242Z,61.80
2023-02-19T03:41:24.490Z,61.44
2023-02-19T03:42:33.097Z,61.61
2023-02-19T03:43:39.547Z,61.36
2023-02-19T03:44:45.024Z,61.61
2023-02-19T03:45:54.660Z,61.21
2023-02-19T03:47:03.563Z,61.00
2023-02-19T03:48:20.580Z,60.91
2023-02-19T03:49:24.890Z,61.02
2023-02-19T03:50:30.797Z,61.10
2023-02-19T03:51:39.169Z,61.29
2023-02-19T03:52:44.393Z,60.83
2023-02-19T03:53:52.568Z,61.18
2023-02-19T03:54:59.386Z,61.01
2023-02-19T03:56:07.570Z,60.92
2023-02-19T03:57:15.995Z,60.89
2023-02-19T03:58:21.240Z,61.16
2023-02-19T03:59:28.843Z,61.41
2023-02-19T04:00:32.844Z,61.33
2023-02-19T04:01:40.730Z,61.40
2023-02-19T04:02:46.746Z,61.11
2023-02-19T04:03:54.869Z,60.88
2023-02-19T04:04:59.450Z,61.46
2023-02-19T04:06:04.976Z,61.34
2023-02-19T04:07:06.932Z,61.59
2023-02-19T04:08:13.564Z,61.29
2023-02-19T04:09:15.662Z,61.48
2023-02-19T04:10:19.029Z,60.87
2023-02-19T04:11:21.593Z,60.88
2023-02-19T04:12:24.804Z,61.18
2023-02-19T04:13:30.446Z,60.77
2023-02-19T04:14:36.786Z,60.87
2023-02-19T04:15:41.741Z,61.14
2023-02-19T04:16:48.579Z,60.68
2023-02-19T04:17:53.603Z,60.76
2023-02-19T04:19:00.777Z,60.73
2023-02-19T04:20:05.526Z,60.85
2023-02-19T04:21:09.110Z,60.66
2023-02-19T04:22:12.540Z,60.93
2023-02-19T04:23:17.615Z,61.12
2023-02-19T04:24:22.344Z,61.00
2023-02-19T04:25:25.558Z,60.75
2023-02-19T04:26:29.899Z,60.41
2023-02-19T04:27:32.814Z,60.60
2023-02-19T04:28:34.887Z,60.81
2023-02-19T04:29:39.233Z,60.60
2023-02-19T04:30:41.325Z,60.60
2023-02-19T04:31:44.219Z,60.56
2023-02-19T04:32:48.594Z,60.51
2023-02-19T04:33:51.329Z,60.60
2023-02-19T04:34:54.498Z,60.61
2023-02-19T04:35:57.190Z,60.12
2023-02-19T04:36:59.879Z,59.93
2023-02-19T04:38:01.562Z,59.94
2023-02-19T04:39:04.272Z,60.21
2023-02-19T04:40:06.800Z,60.07
2023-02-19T04:41:10.627Z,59.87
2023-02-19T04:42:13.404Z,60.00
2023-02-19T04:43:15.090Z,59.54
2023-02-19T04:44:17.877Z,60.31
2023-02-19T04:45:19.570Z,60.13
2023-02-19T04:46:22.370Z,59.90
2023-02-19T04:47:24.116Z,59.72
2023-02-19T04:48:26.898Z,59.21
2023-02-19T04:49:28.852Z,60.02
2023-02-19T04:50:32.978Z,59.67
2023-02-19T04:51:34.743Z,59.75
2023-02-19T04:52:37.506Z,60.00
2023-02-19T04:53:39.201Z,59.88
2023-02-19T04:54:41.994Z,60.51
2023-02-19T04:55:43.701Z,60.44
2023-02-19T04:56:46.419Z,60.51
2023-02-19T04:57:48.214Z,60.49
2023-02-19T04:58:50.991Z,60.32
2023-02-19T04:59:52.802Z,60.09
2023-02-19T05:00:55.459Z,60.39
2023-02-19T05:01:57.886Z,60.42
2023-02-19T05:03:00.952Z,60.75
2023-02-19T05:04:04.892Z,60.67
2023-02-19T05:05:07.864Z,60.96
2023-02-19T05:06:13.218Z,60.60
2023-02-19T05:07:16.171Z,60.58
2023-02-19T05:08:17.941Z,60.78
2023-02-19T05:09:20.966Z,61.05
2023-02-19T05:10:22.688Z,60.43
2023-02-19T05:11:25.393Z,60.83
2023-02-19T05:12:27.128Z,61.00
2023-02-19T05:13:30.044Z,61.16
2023-02-19T05:14:32.932Z,61.33
2023-02-19T05:15:34.736Z,60.93
2023-02-19T05:16:37.420Z,61.01
2023-02-19T05:17:39.143Z,61.67
2023-02-19T05:18:42.385Z,61.33
2023-02-19T05:19:44.267Z,61.40
2023-02-19T05:20:46.936Z,61.68
2023-02-19T05:21:50.022Z,61.28
2023-02-19T05:22:52.844Z,61.62
2023-02-19T05:23:54.511Z,61.82
2023-02-19T05:24:57.232Z,61.95
2023-02-19T05:25:58.963Z,61.75
2023-02-19T05:27:01.755Z,61.87
2023-02-19T05:28:17.077Z,61.44
2023-02-19T05:29:19.891Z,61.38
2023-02-19T05:30:21.645Z,61.35
2023-02-19T05:31:24.805Z,61.17
2023-02-19T05:32:26.650Z,60.96
2023-02-19T05:33:29.354Z,60.96
2023-02-19T05:34:31.260Z,60.80
2023-02-19T05:35:33.985Z,61.17
2023-02-19T05:36:37.165Z,61.11
2023-02-19T05:37:41.183Z,61.02
2023-02-19T05:38:43.272Z,60.91
2023-02-19T05:39:45.977Z,61.07
2023-02-19T05:40:48.096Z,60.96
2023-02-19T05:41:50.805Z,60.80
2023-02-19T05:42:52.481Z,61.14
2023-02-19T05:43:55.656Z,61.42
2023-02-19T05:44:57.353Z,61.10
2023-02-19T05:46:00.274Z,61.19
2023-02-19T05:47:02.992Z,61.09
2023-02-19T05:48:05.746Z,61.03
2023-02-19T05:49:08.459Z,60.92
2023-02-19T05:50:10.236Z,61.18
2023-02-19T05:51:14.202Z,61.03
2023-02-19T05:52:15.937Z,61.19
2023-02-19T05:53:20.019Z,61.11
2023-02-19T05:54:21.701Z,60.81
2023-02-19T05:55:24.498Z,60.99
2023-02-19T05:56:34.172Z,60.62
2023-02-19T05:57:43.431Z,60.77
2023-02-19T05:58:45.432Z,60.95
2023-02-19T05:59:48.072Z,60.57
2023-02-19T06:00:49.841Z,61.00
2023-02-19T06:01:53.936Z,60.56
2023-02-19T06:02:55.774Z,60.46
2023-02-19T06:03:58.856Z,60.33
2023-02-19T06:05:00.608Z,61.04
2023-02-19T06:06:04.671Z,60.84
2023-02-19T06:07:06.332Z,60.86
2023-02-19T06:08:09.002Z,60.88
2023-02-19T06:09:12.288Z,60.87
2023-02-19T06:10:14.981Z,60.55
2023-02-19T06:11:16.950Z,60.64
2023-02-19T06:12:19.630Z,60.51
2023-02-19T06:13:21.312Z,60.58
2023-02-19T06:14:24.040Z,60.55
2023-02-19T06:15:25.771Z,61.12
2023-02-19T06:16:28.786Z,60.59
2023-02-19T06:17:30.639Z,60.65
2023-02-19T06:18:33.404Z,60.65
2023-02-19T06:19:35.121Z,60.35
2023-02-19T06:20:37.779Z,60.74
2023-02-19T06:21:39.535Z,60.56
2023-02-19T06:22:42.206Z,60.48
2023-02-19T06:23:44.330Z,60.74
2023-02-19T06:24:48.913Z,60.79
2023-02-19T06:25:50.579Z,60.76
2023-02-19T06:26:53.328Z,60.82
2023-02-19T06:27:55.131Z,60.92
2023-02-19T06:28:57.773Z,61.01
2023-02-19T06:29:59.626Z,61.04
2023-02-19T06:31:02.438Z,61.26
2023-02-19T06:32:04.906Z,60.83
2023-02-19T06:33:07.613Z,60.71
2023-02-19T06:34:09.399Z,60.99
2023-02-19T06:35:12.223Z,60.42
2023-02-19T06:36:15.616Z,60.66
2023-02-19T06:37:18.300Z,60.19
2023-02-19T06:38:21.362Z,60.84
2023-02-19T06:39:24.063Z,60.75
2023-02-19T06:40:27.137Z,60.92
2023-02-19T06:41:29.885Z,60.65
2023-02-19T06:42:32.054Z,61.06
2023-02-19T06:43:35.524Z,60.74
2023-02-19T06:44:37.295Z,60.72
2023-02-19T06:45:39.973Z,60.59
2023-02-19T06:46:41.714Z,61.04
2023-02-19T06:47:44.423Z,60.67
2023-02-19T06:48:46.261Z,61.17
2023-02-19T06:49:48.988Z,61.10
2023-02-19T06:50:50.646Z,61.25
2023-02-19T06:51:53.432Z,60.73
2023-02-19T06:52:55.189Z,61.16
2023-02-19T06:53:58.267Z,61.22
2023-02-19T06:54:59.967Z,60.74
2023-02-19T06:56:06.766Z,60.97
2023-02-19T06:57:08.613Z,61.34
2023-02-19T06:58:11.337Z,60.87
2023-02-19T06:59:16.957Z,61.18
2023-02-19T07:00:19.038Z,60.91
2023-02-19T07:01:21.860Z,60.65
2023-02-19T07:02:23.557Z,60.92
2023-02-19T07:03:27.239Z,61.01
2023-02-19T07:04:29.118Z,61.18
2023-02-19T07:05:31.821Z,61.11
2023-02-19T07:06:34.442Z,61.05
2023-02-19T07:07:37.137Z,60.81
2023-02-19T07:08:38.902Z,61.06
2023-02-19T07:09:41.615Z,60.92
2023-02-19T07:10:43.423Z,61.14
2023-02-19T07:11:47.507Z,61.00
2023-02-19T07:12:49.299Z,61.11
2023-02-19T07:13:55.766Z,61.64
2023-02-19T07:14:58.703Z,61.32
2023-02-19T07:16:01.538Z,61.37
2023-02-19T07:17:04.666Z,61.40
2023-02-19T07:18:10.300Z,61.64
2023-02-19T07:19:13.001Z,61.14
2023-02-19T07:20:14.682Z,61.11
2023-02-19T07:21:18.486Z,61.02
2023-02-19T07:22:20.147Z,61.03
2023-02-19T07:23:22.821Z,61.02
2023-02-19T07:24:25.492Z,60.54
2023-02-19T07:25:27.313Z,60.88
2023-02-19T07:26:29.971Z,60.78
2023-02-19T07:27:33.046Z,60.51
2023-02-19T07:28:35.784Z,60.48
2023-02-19T07:29:38.537Z,60.45
2023-02-19T07:30:40.277Z,60.42
2023-02-19T07:31:44.047Z,60.24
2023-02-19T07:32:45.843Z,60.21
2023-02-19T07:33:49.120Z,60.21
2023-02-19T07:34:50.844Z,59.92
2023-02-19T07:35:53.538Z,59.79
2023-02-19T07:36:56.162Z,59.50
2023-02-19T07:37:57.836Z,59.65
2023-02-19T07:39:00.981Z,59.12
2023-02-19T07:40:02.791Z,58.92
2023-02-19T07:41:06.591Z,58.91
2023-02-19T07:42:09.217Z,58.80
2023-02-19T07:43:12.286Z,59.19
2023-02-19T07:44:16.797Z,59.25
2023-02-19T07:45:18.545Z,59.00
2023-02-19T07:46:21.404Z,58.95
2023-02-19T07:47:23.150Z,58.78
2023-02-19T07:48:26.081Z,58.72
2023-02-19T07:49:28.765Z,58.54
2023-02-19T07:50:31.260Z,58.47
2023-02-19T07:51:34.006Z,58.15
2023-02-19T07:52:35.720Z,58.06
2023-02-19T07:53:38.390Z,58.04
2023-02-19T07:54:40.124Z,58.33
2023-02-19T07:55:42.806Z,57.89
2023-02-19T07:56:45.534Z,58.28
2023-02-19T07:57:47.280Z,57.69
2023-02-19T07:58:51.292Z,58.10
2023-02-19T07:59:53.179Z,58.03
2023-02-19T08:00:55.927Z,58.14
2023-02-19T08:02:16.185Z,57.68
2023-02-19T08:03:18.008Z,57.79
2023-02-19T08:04:20.705Z,57.83
2023-02-19T08:05:22.469Z,57.68
2023-02-19T08:06:25.150Z,57.88
2023-02-19T08:07:31.463Z,57.73
2023-02-19T08:08:34.313Z,57.92
2023-02-19T08:09:38.097Z,57.96
2023-02-19T08:10:58.393Z,57.78
2023-02-19T08:12:18.750Z,57.37
2023-02-19T08:13:22.859Z,57.17
2023-02-19T08:14:28.016Z,56.99
2023-02-19T08:15:29.865Z,57.52
2023-02-19T08:16:42.671Z,57.31
2023-02-19T08:17:45.106Z,57.32
2023-02-19T08:18:48.878Z,57.12
2023-02-19T08:19:50.564Z,57.13
2023-02-19T08:20:53.403Z,56.88
2023-02-19T08:21:56.025Z,56.84
2023-02-19T08:22:57.745Z,56.97
2023-02-19T08:24:00.423Z,57.13
2023-02-19T08:25:02.148Z,56.41
2023-02-19T08:26:05.010Z,56.41
2023-02-19T08:27:07.299Z,57.08
2023-02-19T08:28:11.760Z,57.20
2023-02-19T08:29:14.552Z,56.85
2023-02-19T08:30:17.968Z,57.40
2023-02-19T08:31:20.889Z,57.58
2023-02-19T08:32:22.760Z,57.82
2023-02-19T08:33:25.434Z,57.93
2023-02-19T08:34:28.119Z,57.67
2023-02-19T08:35:29.800Z,57.46
2023-02-19T08:36:32.596Z,57.77
2023-02-19T08:37:34.350Z,57.49
2023-02-19T08:38:37.712Z,57.83
2023-02-19T08:39:39.458Z,57.49
2023-02-19T08:40:42.192Z,57.57
2023-02-19T08:41:44.886Z,57.78
2023-02-19T08:42:46.668Z,57.29
2023-02-19T08:43:49.946Z,57.54
2023-02-19T08:44:51.731Z,57.30
2023-02-19T08:45:56.503Z,57.38
2023-02-19T08:46:59.242Z,57.39
2023-02-19T08:48:01.030Z,57.01
2023-02-19T08:49:03.712Z,56.99
2023-02-19T08:50:06.620Z,57.49
2023-02-19T08:51:11.169Z,57.42
2023-02-19T08:52:13.197Z,57.32
2023-02-19T08:53:15.872Z,57.51
2023-02-19T08:54:17.777Z,57.13
2023-02-19T08:55:20.616Z,57.39
2023-02-19T08:56:22.479Z,58.06
2023-02-19T08:57:25.699Z,57.77
2023-02-19T08:58:27.412Z,57.63
2023-02-19T08:59:30.478Z,57.80
2023-02-19T09:00:32.291Z,57.12
2023-02-19T09:01:36.433Z,57.38
2023-02-19T09:02:39.197Z,57.32
2023-02-19T09:03:41.468Z,57.62
2023-02-19T09:04:44.202Z,57.29
2023-02-19T09:05:46.867Z,57.49
2023-02-19T09:06:49.584Z,57.40
2023-02-19T09:07:51.280Z,57.07
2023-02-19T09:08:53.975Z,56.97
2023-02-19T09:09:55.650Z,56.95
2023-02-19T09:10:59.803Z,56.91
2023-02-19T09:12:01.500Z,56.86
2023-02-19T09:13:04.196Z,56.66
2023-02-19T09:14:07.680Z,56.95
2023-02-19T09:15:10.710Z,56.71
2023-02-19T09:16:13.482Z,56.19
2023-02-19T09:17:17.611Z,56.35
2023-02-19T09:18:19.391Z,55.82
2023-02-19T09:19:22.153Z,55.86
2023-02-19T09:20:23.880Z,55.92
2023-02-19T09:21:26.946Z,55.84
2023-02-19T09:22:28.629Z,55.73
2023-02-19T09:23:31.471Z,55.22
2023-02-19T09:24:33.204Z,55.43
2023-02-19T09:25:35.890Z,55.28
2023-02-19T09:26:38.637Z,55.09
2023-02-19T09:27:41.511Z,55.04
2023-02-19T09:28:43.288Z,55.34
2023-02-19T09:29:46.339Z,54.91
2023-02-19T09:30:49.079Z,55.02
2023-02-19T09:31:50.933Z,54.36
2023-02-19T09:32:55.511Z,54.72
2023-02-19T09:33:57.203Z,54.05
2023-02-19T09:34:59.871Z,53.73
2023-02-19T09:36:02.307Z,53.72
2023-02-19T09:37:04.998Z,53.47
2023-02-19T09:38:07.107Z,54.01
2023-02-19T09:39:12.594Z,53.80
2023-02-19T09:40:21.343Z,53.78
2023-02-19T09:41:27.786Z,53.81
2023-02-19T09:42:31.495Z,53.53
2023-02-19T09:43:34.862Z,53.05
2023-02-19T09:44:38.539Z,52.92
2023-02-19T09:45:42.010Z,53.04
2023-02-19T09:46:45.292Z,53.29
2023-02-19T09:47:48.317Z,53.06
2023-02-19T09:48:52.067Z,52.78
2023-02-19T09:49:56.873Z,52.57
2023-02-19T09:50:59.748Z,52.91
2023-02-19T09:52:07.597Z,53.09
2023-02-19T09:53:14.291Z,52.95
2023-02-19T09:54:22.150Z,52.81
2023-02-19T09:55:32.548Z,53.10
2023-02-19T09:56:35.813Z,53.19
2023-02-19T09:57:37.721Z,53.27
2023-02-19T09:58:45.253Z,52.46
2023-02-19T09:59:49.635Z,52.66
2023-02-19T10:00:53.954Z,52.55
2023-02-19T10:01:59.764Z,53.05
2023-02-19T10:03:06.026Z,52.98
2023-02-19T10:04:11.334Z,53.09
2023-02-19T10:05:14.020Z,53.56
2023-02-19T10:06:21.737Z,53.33
2023-02-19T10:07:25.671Z,53.38
2023-02-19T10:08:27.539Z,53.93
2023-02-19T10:09:31.322Z,53.70
2023-02-19T10:10:35.719Z,53.75
2023-02-19T10:11:37.605Z,53.33
2023-02-19T10:12:42.470Z,53.22
2023-02-19T10:13:46.207Z,53.28
2023-02-19T10:14:51.339Z,53.20
2023-02-19T10:15:56.092Z,53.69
2023-02-19T10:16:59.489Z,53.12
2023-02-19T10:18:02.170Z,53.41
2023-02-19T10:19:11.126Z,53.28
2023-02-19T10:20:17.098Z,53.24
2023-02-19T10:21:23.116Z,53.60
2023-02-19T10:22:26.467Z,53.40
2023-02-19T10:23:28.213Z,53.85
2023-02-19T10:24:31.134Z,53.29
2023-02-19T10:25:34.231Z,53.75
2023-02-19T10:26:36.923Z,53.82
2023-02-19T10:27:38.779Z,53.56
2023-02-19T10:28:41.504Z,53.25
2023-02-19T10:29:44.082Z,53.16
2023-02-19T10:30:50.401Z,53.00
2023-02-19T10:32:14.483Z,53.15
2023-02-19T10:33:17.758Z,52.79
2023-02-19T10:34:22.165Z,53.05
2023-02-19T10:35:26.355Z,52.80
2023-02-19T10:36:32.107Z,53.11
2023-02-19T10:37:34.586Z,52.96
2023-02-19T10:38:39.386Z,53.08
2023-02-19T10:39:42.891Z,52.85
2023-02-19T10:40:46.517Z,53.10
2023-02-19T10:41:48.790Z,52.98
2023-02-19T10:42:54.840Z,52.19
2023-02-19T10:44:06.572Z,52.79
2023-02-19T10:45:18.947Z,52.36
2023-02-19T10:46:24.207Z,52.33
2023-02-19T10:47:26.973Z,52.03
2023-02-19T10:48:31.840Z,52.08
2023-02-19T10:49:36.158Z,52.44
2023-02-19T10:50:44.479Z,52.65
2023-02-19T10:51:47.790Z,52.53
2023-02-19T10:52:52.591Z,52.78
2023-02-19T10:54:06.933Z,52.73
2023-02-19T10:55:20.849Z,52.47
2023-02-19T10:56:25.399Z,52.56
2023-02-19T10:57:32.657Z,52.78
2023-02-19T10:58:37.724Z,53.28
2023-02-19T10:59:49.578Z,53.40
2023-02-19T11:01:14.970Z,53.63
2023-02-19T11:02:19.317Z,54.16
2023-02-19T11:03:22.356Z,54.44
2023-02-19T11:04:25.904Z,54.04
2023-02-19T11:05:27.648Z,54.87
2023-02-19T11:06:33.418Z,55.42
2023-02-19T11:07:36.736Z,55.63
2023-02-19T11:08:55.351Z,55.54
2023-02-19T11:09:57.502Z,55.71
2023-02-19T11:11:00.220Z,55.24
2023-02-19T11:12:01.965Z,55.62
2023-02-19T11:13:06.144Z,55.27
2023-02-19T11:14:16.689Z,54.95
2023-02-19T11:15:21.340Z,54.82
2023-02-19T11:16:24.897Z,55.01
2023-02-19T11:17:29.432Z,54.75
2023-02-19T11:18:32.583Z,54.44
2023-02-19T11:19:37.930Z,54.29
2023-02-19T11:20:48.251Z,53.82
2023-02-19T11:21:51.953Z,53.89
2023-02-19T11:22:59.117Z,53.20
2023-02-19T11:24:03.663Z,53.74
2023-02-19T11:25:07.144Z,53.30
2023-02-19T11:26:18.897Z,52.26
2023-02-19T11:27:24.100Z,52.69
2023-02-19T11:28:31.636Z,52.18
2023-02-19T11:29:35.715Z,52.76
2023-02-19T11:30:40.117Z,52.41
2023-02-19T11:31:42.884Z,52.53
2023-02-19T11:32:44.636Z,52.38
2023-02-19T11:33:54.314Z,51.90
2023-02-19T11:35:17.926Z,51.24
2023-02-19T11:36:31.928Z,50.77
2023-02-19T11:37:35.044Z,50.59
2023-02-19T11:38:37.740Z,50.44
2023-02-19T11:39:40.897Z,50.86
2023-02-19T11:40:47.268Z,50.20
2023-02-19T11:42:13.845Z,49.82
2023-02-19T11:43:38.669Z,49.46
2023-02-19T11:44:47.864Z,49.44
2023-02-19T11:45:54.329Z,49.35
2023-02-19T11:47:02.079Z,49.17
2023-02-19T11:48:30.911Z,48.98
2023-02-19T11:49:40.387Z,48.82
2023-02-19T11:50:53.170Z,48.86
2023-02-19T11:52:17.150Z,49.06
2023-02-19T11:53:28.826Z,48.85
2023-02-19T11:54:48.585Z,48.74
2023-02-19T11:55:57.492Z,48.67
2023-02-19T11:57:09.709Z,48.75
2023-02-19T11:58:33.768Z,48.67
2023-02-19T11:59:43.628Z,48.37
2023-02-19T12:00:52.943Z,48.39
2023-02-19T12:02:17.119Z,48.44
2023-02-19T12:03:35.430Z,48.54
2023-02-19T12:05:05.482Z,48.52
2023-02-19T12:06:20.763Z,47.93
2023-02-19T12:07:35.397Z,48.19
2023-02-19T12:08:51.855Z,47.79
2023-02-19T12:10:05.259Z,47.53
2023-02-19T12:11:29.848Z,47.30
2023-02-19T12:12:53.484Z,47.52
2023-02-19T12:14:17.633Z,47.44
2023-02-19T12:15:50.146Z,47.17
2023-02-19T12:16:55.028Z,47.18
2023-02-19T12:18:16.906Z,46.96
2023-02-19T12:19:39.946Z,46.72
2023-02-19T12:20:48.190Z,46.72
2023-02-19T12:22:02.437Z,46.51
2023-02-19T12:23:25.538Z,46.66
2023-02-19T12:25:06.404Z,46.31
2023-02-19T12:26:15.703Z,46.49
2023-02-19T12:27:25.757Z,46.33
2023-02-19T12:28:40.519Z,46.22
2023-02-19T12:29:54.916Z,46.28
2023-02-19T12:31:18.690Z,46.44
2023-02-19T12:32:42.860Z,45.88
2023-02-19T12:34:09.777Z,45.90
2023-02-19T12:35:44.486Z,45.83
2023-02-19T12:36:54.786Z,45.93
2023-02-19T12:38:04.414Z,45.87
2023-02-19T12:39:14.796Z,45.66
2023-02-19T12:40:29.231Z,45.60
2023-02-19T12:41:39.127Z,45.72
2023-02-19T12:42:51.675Z,45.73
2023-02-19T12:43:56.563Z,45.42
2023-02-19T12:45:01.428Z,45.55
2023-02-19T12:46:06.137Z,45.22
2023-02-19T12:47:15.499Z,44.86
2023-02-19T12:48:24.211Z,44.50
2023-02-19T12:49:29.454Z,43.88
2023-02-19T12:50:32.162Z,43.38
2023-02-19T12:51:40.486Z,43.06
2023-02-19T12:52:43.495Z,42.74
2023-02-19T12:53:49.250Z,43.44
2023-02-19T12:54:55.665Z,42.76
2023-02-19T12:56:00.866Z,42.64
2023-02-19T12:57:05.687Z,43.06
2023-02-19T12:58:11.787Z,42.81
2023-02-19T12:59:17.703Z,42.66
2023-02-19T13:00:31.376Z,43.13
2023-02-19T13:01:36.276Z,42.76
2023-02-19T13:02:43.250Z,43.05
2023-02-19T13:03:49.329Z,43.12
2023-02-19T13:04:57.418Z,43.19
2023-02-19T13:06:04.158Z,42.80
2023-02-19T13:07:10.775Z,42.72
2023-02-19T13:08:16.110Z,42.10
2023-02-19T13:09:24.483Z,41.86
2023-02-19T13:10:29.334Z,41.77
2023-02-19T13:11:37.306Z,41.97
2023-02-19T13:12:41.305Z,41.84
2023-02-19T13:13:46.457Z,41.58
2023-02-19T13:14:51.238Z,41.63
2023-02-19T13:15:55.755Z,41.50
2023-02-19T13:17:01.505Z,41.27
2023-02-19T13:18:06.786Z,41.53
2023-02-19T13:19:11.611Z,41.29
2023-02-19T13:20:20.407Z,41.54
2023-02-19T13:21:41.888Z,41.66
2023-02-19T13:23:05.774Z,41.29
2023-02-19T13:24:12.724Z,41.77
2023-02-19T13:25:16.209Z,41.74
2023-02-19T13:26:29.413Z,41.73
2023-02-19T13:27:49.924Z,42.09
2023-02-19T13:29:04.915Z,42.23
2023-02-19T13:30:23.310Z,41.70
2023-02-19T13:31:54.058Z,41.91
2023-02-19T13:33:02.815Z,42.23
2023-02-19T13:34:10.906Z,42.08
2023-02-19T13:35:23.697Z,42.34
2023-02-19T13:36:27.748Z,42.25
2023-02-19T13:37:32.337Z,42.57
2023-02-19T13:38:39.108Z,42.67
2023-02-19T13:39:48.657Z,42.92
2023-02-19T13:40:55.873Z,42.77
2023-02-19T13:42:00.066Z,42.58
2023-02-19T13:43:05.929Z,42.70
2023-02-19T13:44:16.937Z,42.96
2023-02-19T13:45:22.256Z,42.81
2023-02-19T13:46:25.864Z,42.76
2023-02-19T13:47:48.213Z,42.68
2023-02-19T13:49:41.655Z,42.52
2023-02-19T13:50:44.344Z,42.83
2023-02-19T13:51:49.606Z,42.95
2023-02-19T13:52:53.151Z,42.86
2023-02-19T13:53:58.985Z,43.12
2023-02-19T13:55:34.857Z,43.29
2023-02-19T13:56:39.450Z,43.52
2023-02-19T13:57:41.706Z,43.38
2023-02-19T13:58:57.249Z,43.38
2023-02-19T14:00:00.384Z,43.51
2023-02-19T14:01:02.901Z,43.48
2023-02-19T14:02:29.338Z,43.84
2023-02-19T14:03:44.895Z,43.78
2023-02-19T14:04:51.511Z,43.62
2023-02-19T14:06:02.674Z,43.63
2023-02-19T14:07:33.869Z,43.75